Time;durP1;ratioP1;P1;durP2;ratioP2;P2;SDS_P1;SDS_P2;PMS_P1;PMS_P2;Temp;Humidity;BMP_temperature;BMP_pressure;BME280_temperature;BME280_humidity;BME280_pressure;Samples;Min_cycle;Max_cycle;Signal;HPM_P1;HPM_P2
2021/03/24 00:03:33;;;;;;;11.93;4.92;;;;;;;2.03;73.79;99015.21;1727061;79;21213;-83
2021/03/24 00:08:55;;;;;;;11.97;5.28;;;;;;;2.08;73.31;99009.28;1716370;79;21260;-83
2021/03/24 00:18:00;;;;;;;10.07;4.60;;;;;;;2.13;73.17;99014.03;1681670;80;21173;31
2021/03/24 00:24:05;;;;;;;9.25;3.65;;;;;;;2.09;71.09;99032.81;1735586;78;21350;31
2021/03/24 00:33:00;;;;;;;5.08;2.90;;;;;;;1.99;69.66;99034.44;1763928;77;22613;-79
2021/03/24 00:41:53;;;;;;;8.48;3.42;;;;;;;1.92;68.53;99040.78;1692281;79;21189;-85
2021/03/24 00:47:38;;;;;;;9.23;3.60;;;;;;;1.91;68.51;99047.62;1756725;78;21128;-79
2021/03/24 00:56:32;;;;;;;9.08;4.55;;;;;;;1.88;67.93;99056.98;1719469;79;21147;-77
2021/03/24 00:59:15;;;;;;;10.48;4.35;;;;;;;1.85;67.91;99058.22;1726559;79;22581;31
2021/03/24 01:17:16;;;;;;;4.85;2.52;;;;;;;1.68;65.84;99070.45;1742928;78;21260;-81
2021/03/24 01:19:44;;;;;;;4.90;2.55;;;;;;;1.62;66.76;99081.92;1722933;79;22550;-77
2021/03/24 01:22:20;;;;;;;4.37;2.40;;;;;;;1.63;66.73;99071.25;1726651;78;21232;31
2021/03/24 01:37:55;;;;;;;4.42;2.27;;;;;;;1.44;64.19;99094.11;1720769;79;21111;-81
2021/03/24 01:43:45;;;;;;;5.67;1.80;;;;;;;1.46;65.02;99087.73;1728992;79;21188;31
2021/03/24 02:51:12;;;;;;;8.50;2.72;;;;;;;0.16;64.48;99110.63;1716012;78;21279;31
2021/03/24 02:57:05;;;;;;;5.67;2.50;;;;;;;0.06;66.15;99132.64;1710408;79;22025;31
2021/03/24 03:29:54;;;;;;;5.75;2.27;;;;;;;-0.47;67.03;99149.10;1741289;83;21129;-84
2021/03/24 03:38:49;;;;;;;26.40;10.15;;;;;;;-0.63;67.09;99142.83;1742164;78;22915;31
2021/03/24 03:41:23;;;;;;;24.60;9.87;;;;;;;-0.70;66.68;99140.54;1741206;78;21250;31
2021/03/24 03:53:23;;;;;;;17.23;8.20;;;;;;;-0.98;67.44;99145.90;1756377;79;21139;-82
2021/03/24 04:12:08;;;;;;;35.47;10.33;;;;;;;-1.17;67.96;99158.25;1742489;77;21207;31
2021/03/24 04:24:48;;;;;;;46.85;13.18;;;;;;;-1.31;68.06;99179.62;1740010;78;21091;-80
2021/03/24 04:37:29;;;;;;;7.60;3.47;;;;;;;-1.43;68.23;99194.20;1729235;78;21129;-82
2021/03/24 04:58:48;;;;;;;9.20;3.17;;;;;;;-1.41;68.20;99218.48;1724986;83;21248;-84
2021/03/24 05:01:43;;;;;;;20.75;10.43;;;;;;;-1.43;68.11;99220.98;1722323;81;21118;-85
2021/03/24 05:04:23;;;;;;;20.72;8.90;;;;;;;-1.43;69.57;99223.53;1735929;77;22772;31
2021/03/24 05:07:15;;;;;;;26.82;8.40;;;;;;;-1.42;68.37;99222.69;1749388;78;22520;31
2021/03/24 05:16:33;;;;;;;21.87;7.83;;;;;;;-1.33;68.83;99233.94;1743736;78;21188;31
2021/03/24 05:19:11;;;;;;;19.77;7.37;;;;;;;-1.29;69.31;99242.16;1740646;78;21341;31
2021/03/24 06:54:22;;;;;;;14.05;3.85;;;;;;;0.88;65.00;99306.30;1771034;78;21170;-85
2021/03/24 07:00:54;;;;;;;12.43;3.62;;;;;;;1.05;64.70;99308.27;1618418;81;21300;-84
2021/03/24 07:10:26;;;;;;;22.55;6.30;;;;;;;1.48;65.13;99312.38;1626379;81;21235;-83
2021/03/24 07:41:47;;;;;;;7.17;2.10;;;;;;;2.69;53.03;99316.88;1817448;75;22318;-86
2021/03/24 08:17:00;;;;;;;6.25;2.25;;;;;;;3.88;50.48;99325.09;1673513;84;21193;-92
2021/03/24 08:19:40;;;;;;;10.38;2.00;;;;;;;4.12;44.36;99328.66;1658176;82;21128;-90
2021/03/24 08:22:34;;;;;;;5.60;2.08;;;;;;;4.26;45.06;99318.39;1632310;85;21166;-94
2021/03/24 08:25:37;;;;;;;2.62;1.40;;;;;;;4.37;47.78;99330.45;1696138;84;21417;-87
2021/03/24 08:28:43;;;;;;;7.42;2.15;;;;;;;4.41;44.72;99327.46;1644482;83;21240;-91
2021/03/24 08:32:07;;;;;;;8.85;2.10;;;;;;;4.41;44.37;99318.89;1684274;83;21192;-92
2021/03/24 08:34:59;;;;;;;5.25;2.02;;;;;;;4.53;48.10;99324.92;1717487;81;21275;-92
2021/03/24 08:38:09;;;;;;;2.67;1.40;;;;;;;4.56;47.87;99327.52;1689784;80;21304;-93
2021/03/24 08:41:17;;;;;;;9.83;1.52;;;;;;;4.46;45.56;99319.34;1713228;80;21645;-91
2021/03/24 08:43:53;;;;;;;9.28;2.30;;;;;;;4.16;43.91;99331.23;1661757;85;21371;-91
2021/03/24 08:46:33;;;;;;;4.85;1.85;;;;;;;3.90;41.55;99325.97;1625170;82;21130;-91
2021/03/24 08:49:22;;;;;;;3.12;1.45;;;;;;;3.75;37.57;99322.86;1640943;85;21282;-90
2021/03/24 08:52:22;;;;;;;6.40;2.08;;;;;;;3.76;39.32;99319.86;1693185;81;21128;-91
2021/03/24 09:01:34;;;;;;;4.30;1.82;;;;;;;4.01;38.40;99333.73;1650349;86;21346;-92
2021/03/24 09:05:08;;;;;;;5.17;1.80;;;;;;;4.12;40.04;99327.36;1710361;83;21248;-92
2021/03/24 09:08:04;;;;;;;3.42;1.55;;;;;;;3.99;38.11;99331.14;1673643;85;21169;-92
2021/03/24 09:11:26;;;;;;;6.08;1.30;;;;;;;4.08;38.86;99330.75;1693671;84;21372;-92
2021/03/24 09:14:35;;;;;;;4.42;1.67;;;;;;;4.12;38.77;99333.36;1797328;78;23054;-91
2021/03/24 09:17:41;;;;;;;6.00;2.90;;;;;;;4.12;39.78;99328.66;1801464;79;21172;-91
2021/03/24 09:20:36;;;;;;;6.05;2.90;;;;;;;4.27;40.03;99329.13;1742108;78;21303;-91
2021/03/24 09:23:37;;;;;;;4.33;1.52;;;;;;;4.55;40.49;99314.63;1768415;80;21280;-91
2021/03/24 09:27:04;;;;;;;4.33;2.08;;;;;;;4.75;40.00;99333.56;1790922;80;21149;-89
2021/03/24 09:30:16;;;;;;;6.95;3.17;;;;;;;4.96;40.22;99325.02;1852820;77;21720;-91
2021/03/24 09:33:09;;;;;;;12.98;4.78;;;;;;;5.21;39.03;99337.91;1869373;76;21323;-83
2021/03/24 09:35:46;;;;;;;47.20;18.77;;;;;;;5.51;39.10;99332.33;1863161;76;21421;-90
2021/03/24 09:38:21;;;;;;;41.77;18.95;;;;;;;5.65;37.48;99333.60;1800970;77;21267;-82
2021/03/24 09:40:56;;;;;;;214.60;56.30;;;;;;;5.69;35.18;99340.07;1802825;78;21260;-81
2021/03/24 09:43:35;;;;;;;32.42;10.68;;;;;;;5.75;38.88;99338.77;1802149;78;21318;-82
2021/03/24 09:46:20;;;;;;;30.60;11.68;;;;;;;5.72;39.14;99340.05;1816501;77;21225;-83
2021/03/24 09:49:31;;;;;;;1412.60;399.12;;;;;;;5.66;34.99;99347.80;1752590;79;21275;-94
2021/03/24 09:53:15;;;;;;;303.02;104.47;;;;;;;5.52;37.80;99341.80;1700122;82;21204;-93
2021/03/24 09:56:07;;;;;;;56.40;20.72;;;;;;;5.68;36.08;99346.52;1725073;82;21188;-90
2021/03/24 10:02:15;;;;;;;19.57;6.72;;;;;;;5.79;34.23;99333.17;1719739;82;21175;-92
2021/03/24 10:04:53;;;;;;;7.25;3.90;;;;;;;5.72;35.69;99333.59;1802293;78;21303;-93
2021/03/24 10:07:26;;;;;;;10.32;3.95;;;;;;;5.56;34.28;99337.06;1773954;79;21287;-92
2021/03/24 10:10:19;;;;;;;25.10;9.73;;;;;;;5.68;33.41;99334.47;1788581;79;21956;-92
2021/03/24 10:13:13;;;;;;;14.70;7.08;;;;;;;5.76;33.51;99332.73;1782901;78;21302;-91
2021/03/24 10:16:00;;;;;;;13.48;3.45;;;;;;;5.85;31.86;99329.70;1761391;80;21225;-90
2021/03/24 10:18:38;;;;;;;4.17;1.70;;;;;;;5.87;33.18;99324.09;1734768;76;21161;-91
2021/03/24 10:21:20;;;;;;;3.77;1.77;;;;;;;5.88;31.35;99322.81;1716074;82;21187;-89
2021/03/24 10:23:56;;;;;;;4.22;2.00;;;;;;;6.06;34.68;99323.22;1707559;83;21187;-90
2021/03/24 10:26:31;;;;;;;3.77;1.90;;;;;;;6.00;32.65;99315.50;1749142;81;21167;-91
2021/03/24 10:29:13;;;;;;;7.08;2.60;;;;;;;6.11;35.38;99316.34;1736123;82;21159;-91
2021/03/24 10:31:46;;;;;;;6.17;2.12;;;;;;;6.19;34.08;99315.02;1687244;78;21662;-90
2021/03/24 10:34:37;;;;;;;2.87;1.87;;;;;;;6.41;34.29;99315.78;1673532;83;21149;-85
2021/03/24 10:37:41;;;;;;;3.00;1.45;;;;;;;6.47;31.63;99322.66;1644501;86;21185;-90
2021/03/24 10:40:18;;;;;;;5.75;2.05;;;;;;;6.62;31.11;99311.37;1657125;81;21142;-92
2021/03/24 10:43:30;;;;;;;7.00;2.02;;;;;;;6.68;32.99;99317.34;1743079;78;21146;-91
2021/03/24 10:46:27;;;;;;;4.47;1.80;;;;;;;6.79;33.98;99312.58;1720441;78;21161;-90
2021/03/24 10:49:02;;;;;;;5.03;1.65;;;;;;;6.76;33.25;99315.61;1809535;77;21135;-91
2021/03/24 10:52:06;;;;;;;9.35;1.77;;;;;;;6.73;30.88;99316.90;1781001;76;21178;-89
2021/03/24 10:54:36;;;;;;;5.15;1.67;;;;;;;6.79;30.78;99314.72;1689882;80;21317;-90
2021/03/24 10:57:21;;;;;;;4.05;1.75;;;;;;;6.82;31.19;99304.34;1669744;80;21176;-90
2021/03/24 11:00:03;;;;;;;5.28;1.62;;;;;;;7.05;32.69;99299.02;1674663;81;21161;-84
2021/03/24 11:02:39;;;;;;;4.35;1.47;;;;;;;7.03;32.49;99288.28;1671912;82;21667;-86
2021/03/24 11:05:16;;;;;;;5.53;1.90;;;;;;;6.96;30.69;99296.50;1673624;81;21137;-85
2021/03/24 11:08:06;;;;;;;5.85;1.87;;;;;;;6.96;28.85;99297.79;1734445;82;21624;-86
2021/03/24 11:11:06;;;;;;;3.60;1.57;;;;;;;6.91;29.77;99300.42;1726651;79;21284;-90
2021/03/24 11:13:45;;;;;;;2.15;0.95;;;;;;;6.88;28.80;99287.50;1701138;83;21196;-88
2021/03/24 11:16:32;;;;;;;4.62;1.70;;;;;;;6.58;28.33;99283.40;1704657;83;21161;-90
2021/03/24 11:19:18;;;;;;;2.77;1.27;;;;;;;6.74;29.48;99281.16;1701833;83;21178;-88
2021/03/24 11:21:53;;;;;;;2.98;1.40;;;;;;;6.83;28.31;99281.53;1700653;83;21169;-86
2021/03/24 11:24:27;;;;;;;2.72;1.62;;;;;;;6.97;29.29;99271.94;1712780;80;21305;-89
2021/03/24 11:27:11;;;;;;;3.50;1.40;;;;;;;7.20;27.80;99270.88;1761561;81;21138;-84
2021/03/24 11:30:23;;;;;;;6.35;1.75;;;;;;;7.52;30.27;99260.67;1717348;82;21171;-87
2021/03/24 11:33:40;;;;;;;3.65;1.40;;;;;;;7.86;29.70;99260.31;1711230;82;21313;-85
2021/03/24 11:36:36;;;;;;;5.30;2.05;;;;;;;7.98;27.56;99258.90;1685875;81;21309;-87
2021/03/24 11:42:14;;;;;;;9.70;4.03;;;;;;;8.36;29.64;99250.62;1804723;77;22904;-90
2021/03/24 11:44:46;;;;;;;3.45;1.55;;;;;;;8.65;28.08;99251.97;1681240;79;21310;-87
2021/03/24 11:47:31;;;;;;;6.33;1.50;;;;;;;9.03;26.93;99250.96;1706582;83;21237;-86
2021/03/24 11:50:43;;;;;;;4.62;1.77;;;;;;;8.97;27.55;99238.95;1693296;83;21271;-85
2021/03/24 11:53:36;;;;;;;3.25;1.70;;;;;;;9.10;26.44;99235.73;1673329;84;21385;-84
2021/03/24 11:56:44;;;;;;;2.97;1.40;;;;;;;9.39;27.59;99244.73;1690342;85;21318;-85
2021/03/24 11:59:36;;;;;;;3.80;1.50;;;;;;;9.55;24.75;99238.40;1695701;85;21539;-86
2021/03/24 12:02:19;;;;;;;4.00;2.00;;;;;;;9.71;26.42;99240.27;1682647;84;21262;-85
2021/03/24 12:04:57;;;;;;;2.02;1.12;;;;;;;10.21;25.18;99242.27;1670981;84;21306;-85
2021/03/24 12:07:44;;;;;;;4.47;1.30;;;;;;;10.27;25.91;99242.59;1686641;85;21289;-85
2021/03/24 12:10:24;;;;;;;10.48;1.70;;;;;;;10.51;27.65;99236.88;1649001;86;21297;-86
2021/03/24 12:13:14;;;;;;;6.60;1.98;;;;;;;10.53;21.51;99232.49;1768092;79;23131;-91
2021/03/24 12:15:43;;;;;;;3.00;1.45;;;;;;;10.72;23.92;99235.96;1731386;81;21335;-85
2021/03/24 12:18:18;;;;;;;6.87;1.67;;;;;;;10.59;23.79;99234.56;1745787;80;21304;-85
2021/03/24 12:20:58;;;;;;;5.12;1.65;;;;;;;10.68;26.41;99230.42;1780544;80;21288;-85
2021/03/24 12:23:30;;;;;;;6.65;1.87;;;;;;;10.53;25.05;99228.59;1774068;80;21299;-85
2021/03/24 12:26:02;;;;;;;3.67;1.70;;;;;;;10.21;23.15;99240.13;1750637;79;21290;-89
2021/03/24 12:28:56;;;;;;;4.70;1.82;;;;;;;10.07;23.21;99235.22;1697157;80;21285;-93
2021/03/24 12:31:29;;;;;;;5.90;1.98;;;;;;;10.13;24.64;99238.98;1677247;81;21527;-91
2021/03/24 12:34:03;;;;;;;3.37;1.80;;;;;;;10.10;25.47;99234.69;1726952;80;21250;-86
2021/03/24 12:36:33;;;;;;;4.00;1.98;;;;;;;10.02;21.82;99233.99;1698087;81;21327;-91
2021/03/24 12:39:05;;;;;;;3.35;1.50;;;;;;;10.24;23.08;99231.80;1704111;84;21189;-88
2021/03/24 12:41:43;;;;;;;5.40;1.55;;;;;;;10.42;23.52;99235.77;1704936;84;21334;-87
2021/03/24 12:44:30;;;;;;;6.08;2.50;;;;;;;10.45;22.16;99230.97;1704798;84;21269;-86
2021/03/24 12:47:02;;;;;;;2.85;1.40;;;;;;;10.46;22.15;99225.71;1688285;84;21245;-86
2021/03/24 12:49:37;;;;;;;5.55;2.45;;;;;;;10.69;23.14;99221.30;1689125;84;21292;-86
2021/03/24 12:52:28;;;;;;;4.62;1.47;;;;;;;11.33;24.80;99227.10;1726226;78;21207;-89
2021/03/24 12:58:49;;;;;;;9.25;2.98;;;;;;;11.55;20.99;99213.06;1788261;80;21129;-93
2021/03/24 13:01:52;;;;;;;4.20;2.12;;;;;;;11.60;24.15;99217.71;1680590;81;21209;-92
2021/03/24 13:04:44;;;;;;;5.37;2.52;;;;;;;11.13;23.18;99223.71;1681346;82;21153;-88
2021/03/24 13:07:37;;;;;;;7.25;3.22;;;;;;;10.90;22.07;99213.86;1691486;79;21159;-92
2021/03/24 13:10:30;;;;;;;6.47;2.12;;;;;;;10.71;23.99;99223.41;1729491;77;21350;-95
2021/03/24 13:13:25;;;;;;;4.60;1.80;;;;;;;10.65;24.74;99217.52;1738406;81;21727;-95
2021/03/24 13:19:09;;;;;;;2.60;1.50;;;;;;;11.04;23.84;99214.82;1746098;82;21265;-91
2021/03/24 13:22:24;;;;;;;3.12;1.80;;;;;;;11.50;25.91;99211.89;1738570;80;21288;-95
2021/03/24 13:28:16;;;;;;;4.72;2.30;;;;;;;11.59;22.67;99214.69;1682308;85;21206;-93
2021/03/24 13:31:15;;;;;;;34.43;17.65;;;;;;;11.58;20.16;99216.90;1709193;81;21307;-91
2021/03/24 13:34:02;;;;;;;91.22;41.90;;;;;;;12.11;21.69;99218.44;1737123;79;21175;-92
2021/03/24 13:36:50;;;;;;;35.00;17.95;;;;;;;12.28;21.39;99214.50;1701253;80;21128;-88
2021/03/24 13:39:32;;;;;;;19.35;10.35;;;;;;;11.50;20.73;99180.66;1778762;79;21290;-92
2021/03/24 13:42:30;;;;;;;33.15;18.37;;;;;;;11.77;21.39;99218.98;1814490;77;21205;-89
2021/03/24 13:45:16;;;;;;;34.43;20.72;;;;;;;11.68;22.35;99213.59;1814416;79;21132;-87
2021/03/24 13:48:12;;;;;;;10.32;6.17;;;;;;;11.43;22.16;99219.91;1814726;78;21139;-89
2021/03/24 13:50:52;;;;;;;6.28;2.35;;;;;;;11.19;22.16;99219.64;1802319;77;21304;-92
2021/03/24 13:53:53;;;;;;;32.88;17.05;;;;;;;10.96;23.53;99211.11;1700999;78;21244;-91
2021/03/24 13:57:01;;;;;;;5.60;2.55;;;;;;;11.04;22.99;99213.09;1670530;83;21285;-89
2021/03/24 13:59:36;;;;;;;6.28;2.55;;;;;;;11.15;21.91;99214.11;1671811;84;21161;-93
2021/03/24 14:02:30;;;;;;;8.15;3.65;;;;;;;11.67;22.74;99224.44;1778291;80;21369;-94
2021/03/24 14:05:12;;;;;;;8.78;3.45;;;;;;;12.20;22.08;99209.97;1768875;77;21331;31
2021/03/24 14:10:49;;;;;;;6.65;2.25;;;;;;;11.43;21.23;99222.51;1775714;80;21309;-93
2021/03/24 14:14:15;;;;;;;6.28;2.20;;;;;;;11.17;21.44;99224.03;1733792;78;21191;-94
2021/03/24 14:16:47;;;;;;;5.50;2.10;;;;;;;11.67;22.73;99224.89;1800772;80;21295;-94
2021/03/24 14:19:47;;;;;;;3.90;1.90;;;;;;;11.97;22.19;99213.24;1765599;77;21280;-92
2021/03/24 14:22:39;;;;;;;7.15;2.02;;;;;;;12.24;20.84;99217.64;1760288;79;21142;-93
2021/03/24 14:27:58;;;;;;;6.40;2.17;;;;;;;11.18;20.92;99227.06;1695049;85;21323;-95
2021/03/24 14:33:40;;;;;;;5.33;3.40;;;;;;;11.19;22.31;99228.75;1716243;83;21215;-94
2021/03/24 14:48:46;;;;;;;3.90;1.90;;;;;;;12.99;20.60;99220.09;1807657;76;21171;-93
2021/03/24 14:51:40;;;;;;;7.95;2.10;;;;;;;12.16;20.19;99224.00;1782343;76;21190;-93
2021/03/24 14:54:29;;;;;;;;;;;;;;;12.01;20.83;99229.19;1780176;78;21146;-94
2021/03/24 14:59:43;;;;;;;5.42;2.22;;;;;;;10.85;21.27;99234.80;1631779;88;21154;-93
2021/03/24 15:05:02;;;;;;;4.53;2.10;;;;;;;10.67;21.47;99232.18;1692868;85;21819;-92
2021/03/24 15:07:43;;;;;;;8.33;2.15;;;;;;;11.20;21.67;99232.20;1713588;77;21337;-90
2021/03/24 15:10:24;;;;;;;4.78;2.40;;;;;;;11.48;20.83;99227.12;1736324;82;21171;-87
2021/03/24 15:12:59;;;;;;;5.45;1.80;;;;;;;11.70;21.06;99213.95;1737910;78;21381;-92
2021/03/24 15:15:48;;;;;;;6.20;2.25;;;;;;;11.80;21.24;99220.19;1804230;79;21260;-89
2021/03/24 15:18:53;;;;;;;3.15;1.82;;;;;;;12.12;21.21;99224.53;1814565;77;21275;-89
2021/03/24 15:22:00;;;;;;;6.55;2.50;;;;;;;11.95;20.23;99231.52;1777887;79;21363;-88
2021/03/24 15:24:58;;;;;;;6.92;3.27;;;;;;;12.18;20.81;99228.72;1810918;79;21509;-88
2021/03/24 15:27:50;;;;;;;11.55;3.15;;;;;;;12.42;20.41;99223.21;1775939;81;21277;-88
2021/03/24 15:30:51;;;;;;;6.17;2.75;;;;;;;12.49;20.47;99220.80;1780217;80;21295;-87
2021/03/24 15:33:53;;;;;;;6.15;2.15;;;;;;;11.91;20.20;99218.17;1806353;76;21093;-89
2021/03/24 15:36:38;;;;;;;8.45;2.60;;;;;;;11.38;20.97;99229.57;1803304;79;21263;-89
2021/03/24 15:39:15;;;;;;;5.60;2.35;;;;;;;10.59;20.75;99222.86;1800907;77;21235;-89
2021/03/24 15:42:12;;;;;;;6.30;2.22;;;;;;;9.88;21.36;99225.19;1861127;76;21075;-86
2021/03/24 15:44:58;;;;;;;6.28;2.00;;;;;;;9.28;21.91;99230.22;1796694;79;21253;-86
2021/03/24 15:47:43;;;;;;;7.65;2.80;;;;;;;8.64;22.81;99234.72;1792203;77;21287;-87
2021/03/24 15:50:24;;;;;;;6.62;2.72;;;;;;;8.35;23.71;99240.28;1763479;79;21133;-87
2021/03/24 15:52:53;;;;;;;7.78;2.58;;;;;;;7.90;23.55;99243.90;1752830;79;21121;-86
2021/03/24 15:55:30;;;;;;;5.37;2.27;;;;;;;7.62;23.74;99236.86;1767660;79;21097;-87
2021/03/24 15:58:19;;;;;;;4.75;2.20;;;;;;;7.35;24.12;99242.75;1719542;79;22346;-93
2021/03/24 16:01:17;;;;;;;7.87;2.92;;;;;;;6.98;24.58;99250.81;1762424;80;21295;-92
2021/03/24 16:03:59;;;;;;;7.33;3.25;;;;;;;6.75;25.21;99249.27;1763302;78;21325;-92
2021/03/24 16:06:41;;;;;;;6.30;1.90;;;;;;;6.60;25.37;99253.69;1670972;85;21191;-91
2021/03/24 16:09:44;;;;;;;5.62;2.65;;;;;;;6.45;25.66;99256.80;1775612;80;21130;-92
2021/03/24 16:12:40;;;;;;;7.10;3.00;;;;;;;6.29;26.39;99243.11;1722570;79;21328;-94
2021/03/24 16:15:37;;;;;;;5.85;2.45;;;;;;;6.09;26.73;99239.34;1751045;81;21287;-90
2021/03/24 16:21:55;;;;;;;17.00;3.50;;;;;;;5.85;26.84;99250.59;1791264;80;21169;-92
2021/03/24 16:24:48;;;;;;;8.18;3.55;;;;;;;5.75;26.97;99252.78;1708579;83;21618;-89
2021/03/24 16:27:58;;;;;;;9.05;3.87;;;;;;;5.61;27.98;99253.22;1775828;78;21152;-89
2021/03/24 16:30:31;;;;;;;7.83;3.70;;;;;;;5.61;27.49;99253.22;1775585;80;21251;-90
2021/03/24 16:33:43;;;;;;;12.63;6.12;;;;;;;5.49;27.61;99258.86;1779339;79;21146;-91
2021/03/24 16:36:32;;;;;;;10.18;4.35;;;;;;;5.41;28.58;99261.00;1717351;79;21629;-83
2021/03/24 16:39:53;;;;;;;20.35;9.65;;;;;;;5.32;29.03;99259.31;1795044;78;23079;-87
2021/03/24 16:43:05;;;;;;;12.70;5.05;;;;;;;5.19;29.16;99261.02;1791541;78;21558;-92
2021/03/24 16:45:52;;;;;;;38.63;13.48;;;;;;;5.09;28.08;99267.92;1681778;85;21306;-91
2021/03/24 16:48:57;;;;;;;47.00;18.40;;;;;;;4.92;29.72;99262.75;1640203;86;21181;-89
2021/03/24 16:51:57;;;;;;;28.60;11.05;;;;;;;4.82;30.66;99272.62;1653980;80;21212;-89
2021/03/24 16:54:34;;;;;;;23.42;8.10;;;;;;;4.73;30.52;99273.45;1722741;80;21136;-92
2021/03/24 17:13:50;;;;;;;35.55;15.13;;;;;;;4.19;30.40;99286.20;1688928;81;21239;-83
2021/03/24 17:25:52;;;;;;;21.85;7.03;;;;;;;3.94;32.06;99293.41;1670076;81;21208;-91
2021/03/24 17:32:05;;;;;;;29.55;13.62;;;;;;;3.85;32.20;99299.34;1677355;84;21195;-88
2021/03/24 17:34:38;;;;;;;21.68;8.98;;;;;;;3.79;31.80;99301.45;1554453;91;22179;-88
2021/03/24 17:40:14;;;;;;;21.55;8.35;;;;;;;3.70;32.90;99308.25;1641082;87;21360;-89
2021/03/24 17:43:07;;;;;;;21.48;8.78;;;;;;;3.64;33.10;99317.22;1659253;81;21370;-86
2021/03/24 17:45:45;;;;;;;22.77;9.10;;;;;;;3.57;33.08;99314.61;1710887;82;21210;-84
2021/03/24 17:48:21;;;;;;;31.57;10.63;;;;;;;3.53;34.23;99322.30;1737668;81;21693;-85
2021/03/24 17:51:10;;;;;;;34.53;9.33;;;;;;;3.45;34.94;99323.95;1744670;80;21246;-83
2021/03/24 17:53:52;;;;;;;29.02;8.20;;;;;;;3.36;36.64;99324.73;1764835;79;21253;-82
2021/03/24 17:56:31;;;;;;;27.65;6.78;;;;;;;3.27;37.20;99322.11;1751282;79;21190;-85
2021/03/24 17:59:35;;;;;;;40.73;9.43;;;;;;;3.17;37.81;99326.31;1792479;79;21276;-81
2021/03/24 18:02:34;;;;;;;35.52;7.78;;;;;;;3.08;37.55;99330.92;1778320;79;21280;-83
2021/03/24 18:05:20;;;;;;;30.35;11.20;;;;;;;2.95;39.08;99338.95;1778446;79;21287;-82
2021/03/24 18:07:48;;;;;;;25.97;9.93;;;;;;;2.85;36.38;99351.27;1775389;79;21258;-83
2021/03/24 18:10:35;;;;;;;26.82;11.60;;;;;;;2.74;37.12;99350.30;1786961;79;21280;-82
2021/03/24 18:13:08;;;;;;;35.23;10.38;;;;;;;2.68;39.52;99358.78;1767840;81;21252;-82
2021/03/24 18:15:43;;;;;;;28.55;11.45;;;;;;;2.60;38.27;99365.54;1781432;79;21256;-81
2021/03/24 18:18:22;;;;;;;41.02;14.50;;;;;;;2.55;36.65;99366.78;1775185;79;21303;-81
2021/03/24 18:21:04;;;;;;;49.33;19.30;;;;;;;2.49;37.72;99372.28;1710981;82;21258;-83
2021/03/24 18:23:35;;;;;;;34.13;14.33;;;;;;;2.43;38.34;99369.61;1729529;80;21515;-82
2021/03/24 18:26:09;;;;;;;40.88;14.20;;;;;;;2.36;37.04;99373.81;1724011;82;21262;-82
2021/03/24 18:28:49;;;;;;;32.25;13.40;;;;;;;2.31;39.01;99379.33;1768928;79;21279;-79
2021/03/24 18:31:38;;;;;;;40.75;10.90;;;;;;;2.26;39.56;99378.39;1767311;79;21677;-82
2021/03/24 18:34:23;;;;;;;34.45;12.23;;;;;;;2.27;39.40;99381.38;1803797;79;23046;-80
2021/03/24 18:36:59;;;;;;;26.77;11.40;;;;;;;2.18;37.88;99386.84;1781157;80;21295;-81
2021/03/24 18:39:37;;;;;;;32.58;12.45;;;;;;;2.14;37.54;99392.77;1783618;80;21276;-82
2021/03/24 18:45:39;;;;;;;30.88;11.10;;;;;;;2.09;38.76;99396.11;1699777;81;21174;-83
2021/03/24 19:01:08;;;;;;;41.55;15.48;;;;;;;1.77;40.14;99404.20;1702787;79;21191;-81
2021/03/24 19:03:42;;;;;;;48.58;16.85;;;;;;;1.72;39.63;99418.23;1684381;84;22299;-79
2021/03/24 19:06:18;;;;;;;36.88;14.90;;;;;;;1.64;40.34;99421.09;1645393;85;21183;-82
2021/03/24 19:09:04;;;;;;;42.13;17.90;;;;;;;1.59;40.56;99423.99;1664216;84;21364;-83
2021/03/24 19:11:37;;;;;;;40.12;15.70;;;;;;;1.54;39.95;99431.61;1686762;80;21798;-81
2021/03/24 19:14:41;;;;;;;41.95;16.80;;;;;;;1.48;41.99;99434.08;1665038;86;21182;-82
2021/03/24 19:17:35;;;;;;;48.50;20.48;;;;;;;1.44;40.71;99441.70;1651284;86;21229;-82
2021/03/24 19:20:30;;;;;;;51.35;18.12;;;;;;;1.38;41.46;99445.02;1662679;85;21123;-83
2021/03/24 19:23:17;;;;;;;60.52;19.82;;;;;;;1.33;41.24;99441.10;1673082;85;21218;-82
2021/03/24 19:25:47;;;;;;;61.83;19.90;;;;;;;1.27;42.53;99443.52;1641885;86;21583;-82
2021/03/24 19:28:19;;;;;;;45.17;18.30;;;;;;;1.23;41.23;99448.15;1651419;86;21275;-82
2021/03/24 19:31:06;;;;;;;48.00;19.65;;;;;;;1.21;42.07;99456.22;1666104;85;21300;-85
2021/03/24 19:33:51;;;;;;;50.38;19.05;;;;;;;1.17;41.60;99464.30;1667155;85;21134;-82
2021/03/24 19:36:29;;;;;;;60.03;24.82;;;;;;;1.12;42.23;99462.48;1663411;85;21308;-79
2021/03/24 19:39:19;;;;;;;55.83;21.50;;;;;;;1.08;45.35;99468.37;1667480;85;21172;-84
2021/03/24 19:41:50;;;;;;;64.40;26.95;;;;;;;1.04;44.01;99466.59;1673241;85;21764;-81
2021/03/24 19:44:34;;;;;;;72.35;25.25;;;;;;;1.01;44.18;99474.20;1669593;83;21269;-83
2021/03/24 19:47:27;;;;;;;90.85;33.88;;;;;;;0.96;42.57;99478.81;1666836;85;21320;-81
2021/03/24 19:50:01;;;;;;;87.17;31.25;;;;;;;0.92;43.64;99473.61;1645896;86;21220;-82
2021/03/24 19:52:29;;;;;;;102.22;38.28;;;;;;;0.86;43.42;99473.07;1667591;85;21201;-81
2021/03/24 19:54:56;;;;;;;117.10;38.45;;;;;;;0.82;43.55;99472.95;1671191;84;21251;-80
2021/03/24 19:57:40;;;;;;;149.32;48.28;;;;;;;0.77;44.38;99482.69;1671688;85;21280;-81
2021/03/24 20:03:40;;;;;;;74.20;30.43;;;;;;;0.71;44.85;99488.11;1678764;84;21181;-81
2021/03/24 20:06:28;;;;;;;93.45;33.18;;;;;;;0.67;44.83;99487.17;1725206;80;21255;-79
2021/03/24 20:09:16;;;;;;;100.85;32.75;;;;;;;0.63;43.31;99488.37;1776364;80;21456;-82
2021/03/24 20:12:01;;;;;;;131.70;39.40;;;;;;;0.57;43.61;99492.52;1768562;80;21304;-82
2021/03/24 20:14:33;;;;;;;75.87;28.27;;;;;;;0.54;44.80;99496.30;1766643;80;21258;-82
2021/03/24 20:17:40;;;;;;;113.55;37.15;;;;;;;0.49;43.81;99492.77;1758839;81;21248;-82
2021/03/24 20:20:31;;;;;;;117.72;34.98;;;;;;;0.44;45.54;99495.66;1752663;80;21271;-81
2021/03/24 20:23:02;;;;;;;129.42;42.15;;;;;;;0.41;48.73;99501.11;1751780;80;21247;-82
2021/03/24 20:25:35;;;;;;;93.20;31.40;;;;;;;0.38;45.88;99498.94;1744019;78;21296;-80
2021/03/24 20:28:07;;;;;;;117.25;34.58;;;;;;;0.36;45.88;99498.46;1723472;80;21120;-82
2021/03/24 20:30:38;;;;;;;76.37;28.07;;;;;;;0.34;46.37;99503.53;1668723;82;21285;-80
2021/03/24 20:33:23;;;;;;;69.27;26.02;;;;;;;0.33;45.40;99500.94;1684855;83;21267;-84
2021/03/24 20:35:59;;;;;;;65.72;23.22;;;;;;;0.32;45.89;99501.36;1655227;84;21273;-80
2021/03/24 20:42:05;;;;;;;52.78;18.40;;;;;;;0.28;45.03;99500.84;1666424;84;21158;-81
2021/03/24 20:44:55;;;;;;;46.70;16.65;;;;;;;0.26;45.06;99498.67;1686610;83;21199;-81
2021/03/24 20:47:26;;;;;;;32.42;12.00;;;;;;;0.24;47.09;99500.72;1674228;83;21165;-83
2021/03/24 20:52:56;;;;;;;60.65;25.12;;;;;;;0.19;47.15;99501.48;1721656;82;21306;-81
2021/03/24 20:55:26;;;;;;;52.17;20.45;;;;;;;0.17;48.29;99496.74;1735345;80;21229;-81
2021/03/24 20:57:55;;;;;;;57.30;20.10;;;;;;;0.14;48.56;99493.24;1728871;82;21300;-83
2021/03/24 21:00:32;;;;;;;36.10;14.95;;;;;;;0.11;49.84;99491.49;1721979;83;21143;-84
2021/03/24 21:03:06;;;;;;;33.45;12.55;;;;;;;0.07;48.85;99501.20;1722894;82;21327;-79
2021/03/24 21:05:34;;;;;;;30.25;12.60;;;;;;;0.02;48.05;99498.97;1715122;82;21221;-81
2021/03/24 21:08:05;;;;;;;37.05;13.72;;;;;;;-0.01;48.53;99502.29;1724106;82;21325;-80
2021/03/24 21:10:37;;;;;;;42.75;15.63;;;;;;;-0.09;48.69;99500.39;1726290;81;21136;-79
2021/03/24 21:13:07;;;;;;;44.65;16.75;;;;;;;-0.04;48.81;99520.13;1724080;82;21320;-80
2021/03/24 21:15:37;;;;;;;47.65;17.50;;;;;;;-0.09;52.46;99524.67;1713229;79;21328;-82
2021/03/24 21:18:13;;;;;;;53.73;19.50;;;;;;;-0.14;54.33;99528.79;1716624;81;21335;-83
2021/03/24 21:20:40;;;;;;;46.08;18.20;;;;;;;-0.21;51.58;99529.92;1706031;83;21151;-81
2021/03/24 21:23:09;;;;;;;44.85;17.20;;;;;;;-0.28;51.64;99535.72;1704437;83;21174;-79
2021/03/24 21:25:39;;;;;;;45.05;16.17;;;;;;;-0.32;53.64;99535.19;1705921;82;21170;-80
2021/03/24 21:28:07;;;;;;;52.90;17.98;;;;;;;-0.36;53.32;99524.84;1695766;82;21197;-81
2021/03/24 21:30:40;;;;;;;50.52;15.93;;;;;;;-0.39;49.66;99534.99;1701411;82;21178;-81
2021/03/24 21:33:10;;;;;;;46.35;15.25;;;;;;;-0.44;51.45;99537.41;1715463;82;21154;-80
2021/03/24 21:35:40;;;;;;;35.60;13.50;;;;;;;-0.46;51.95;99535.23;1711017;82;21139;-80